Time;durP1;ratioP1;P1;durP2;ratioP2;P2;SDS_P1;SDS_P2;PMS_P1;PMS_P2;Temp;Humidity;BMP_temperature;BMP_pressure;BME280_temperature;BME280_humidity;BME280_pressure;Samples;Min_cycle;Max_cycle;Signal;HPM_P1;HPM_P2
2021/10/22 00:00:06;;;;;;;22.63;16.02;;;;;;;5.85;70.15;93614.56;5093161;28;20023;-43
2021/10/22 00:02:31;;;;;;;18.83;13.98;;;;;;;5.90;69.75;93622.00;5093024;28;20389;-43
2021/10/22 00:04:57;;;;;;;18.70;14.38;;;;;;;5.85;69.22;93619.28;5092497;28;20027;-43
2021/10/22 00:07:22;;;;;;;20.25;13.52;;;;;;;5.84;69.65;93620.56;5092644;28;20024;-45
2021/10/22 00:09:48;;;;;;;20.15;13.48;;;;;;;5.86;69.06;93615.31;5092540;28;20496;-45
2021/10/22 00:12:13;;;;;;;22.10;14.38;;;;;;;5.77;68.79;93618.34;5092834;28;20031;-44
2021/10/22 00:14:39;;;;;;;21.92;14.75;;;;;;;5.75;69.11;93621.63;5092362;28;20616;-44
2021/10/22 00:17:05;;;;;;;21.33;15.02;;;;;;;5.76;68.56;93617.59;5092454;28;20034;-45
2021/10/22 00:19:32;;;;;;;24.90;13.52;;;;;;;5.75;68.81;93609.91;5092694;28;20024;-46
2021/10/22 00:21:57;;;;;;;20.30;14.57;;;;;;;5.53;69.54;93618.34;5084921;28;20063;-46
2021/10/22 00:24:22;;;;;;;21.42;14.02;;;;;;;5.36;69.81;93613.75;5071752;28;20040;-43
2021/10/22 00:26:48;;;;;;;19.90;15.43;;;;;;;5.38;69.96;93602.28;5071932;28;20024;-44
2021/10/22 00:29:14;;;;;;;23.25;15.73;;;;;;;5.52;69.79;93611.38;5071962;28;20074;-45
2021/10/22 00:31:40;;;;;;;22.02;15.82;;;;;;;5.46;70.17;93614.16;5071990;28;20022;-45
2021/10/22 00:34:05;;;;;;;25.83;16.85;;;;;;;5.25;70.96;93611.13;5084810;28;20032;-42
2021/10/22 00:36:30;;;;;;;22.10;15.38;;;;;;;5.37;70.52;93614.50;5092354;28;20023;-42
2021/10/22 00:38:56;;;;;;;24.13;14.70;;;;;;;5.37;70.01;93606.31;5092337;28;20448;-42
2021/10/22 00:41:22;;;;;;;21.00;14.60;;;;;;;5.39;70.06;93603.78;5091892;28;20028;-43
2021/10/22 00:43:47;;;;;;;21.40;15.10;;;;;;;5.39;70.86;93610.00;5092262;28;20507;-42
2021/10/22 00:46:13;;;;;;;18.42;12.90;;;;;;;5.23;70.22;93612.88;5091902;28;20028;-42
2021/10/22 00:48:39;;;;;;;18.15;12.30;;;;;;;5.28;70.14;93609.38;5092149;28;20032;-42
2021/10/22 00:51:09;;;;;;;17.63;12.18;;;;;;;5.20;70.36;93600.94;5091800;28;20028;-42
2021/10/22 00:53:38;;;;;;;25.63;15.25;;;;;;;5.06;71.06;93574.72;5091903;28;20021;-43
2021/10/22 00:56:07;;;;;;;28.92;18.23;;;;;;;5.24;70.04;93606.88;5091733;28;20067;-43
2021/10/22 00:58:34;;;;;;;30.38;17.45;;;;;;;5.22;70.04;93608.63;5091010;28;20508;-42
2021/10/22 01:01:00;;;;;;;21.85;14.25;;;;;;;5.21;70.80;93607.16;5091178;28;20157;-42
2021/10/22 01:03:25;;;;;;;29.90;18.73;;;;;;;5.13;70.76;93609.00;5091901;28;20019;-42
2021/10/22 01:05:51;;;;;;;26.30;17.15;;;;;;;5.12;71.09;93605.50;5091764;28;20088;-43
2021/10/22 01:08:16;;;;;;;27.48;18.08;;;;;;;5.17;70.34;93615.66;5091757;28;20028;-41
2021/10/22 01:10:42;;;;;;;28.85;16.77;;;;;;;4.79;71.57;93624.13;5090539;28;20537;-41
2021/10/22 01:13:08;;;;;;;27.73;17.20;;;;;;;4.88;71.03;93610.16;5090446;28;20571;-41
2021/10/22 01:15:34;;;;;;;29.52;17.90;;;;;;;4.96;70.81;93609.09;5091312;28;20028;-42
2021/10/22 01:18:00;;;;;;;27.77;17.13;;;;;;;4.88;70.86;93608.16;5090585;28;20031;-41
2021/10/22 01:20:26;;;;;;;29.20;17.27;;;;;;;4.60;70.87;93615.81;5091279;28;20036;-41
2021/10/22 01:22:53;;;;;;;30.08;16.80;;;;;;;4.52;70.94;93612.13;5075901;28;20097;-41
2021/10/22 01:25:21;;;;;;;25.02;16.40;;;;;;;4.72;70.91;93614.47;5071182;28;20032;-42
2021/10/22 01:27:47;;;;;;;23.27;14.88;;;;;;;4.53;71.21;93606.16;5070882;28;20078;-42
2021/10/22 01:30:15;;;;;;;26.38;16.00;;;;;;;4.69;70.92;93617.50;5094293;28;20028;-41
2021/10/22 01:32:41;;;;;;;18.65;12.65;;;;;;;4.68;70.76;93619.47;5101487;28;20496;-43
2021/10/22 01:35:07;;;;;;;15.68;11.32;;;;;;;4.79;70.59;93629.59;5091158;28;20054;-43
2021/10/22 01:37:33;;;;;;;16.35;11.10;;;;;;;4.80;70.26;93623.66;5108028;28;20031;-44
2021/10/22 01:39:59;;;;;;;21.10;12.82;;;;;;;4.79;71.06;93624.88;5111188;28;20557;-43
2021/10/22 01:42:25;;;;;;;18.05;11.68;;;;;;;4.68;71.24;93630.41;5108790;28;20024;-43
2021/10/22 01:44:51;;;;;;;19.98;13.02;;;;;;;4.63;71.30;93631.22;5090672;28;20024;-43
2021/10/22 01:47:17;;;;;;;18.80;12.50;;;;;;;4.81;71.05;93629.88;5091070;28;20085;-42
2021/10/22 01:49:43;;;;;;;17.85;11.88;;;;;;;4.89;71.09;93633.53;5091040;28;20149;-42
2021/10/22 01:52:09;;;;;;;21.42;14.10;;;;;;;4.90;70.65;93632.25;5090950;28;20534;-43
2021/10/22 01:54:34;;;;;;;18.95;12.68;;;;;;;4.86;71.14;93638.03;5090585;28;20508;-43
2021/10/22 01:57:00;;;;;;;20.45;13.52;;;;;;;4.86;70.30;93631.81;5090534;28;20085;-44
2021/10/22 01:59:25;;;;;;;29.70;16.30;;;;;;;4.96;71.39;93636.44;5090886;28;20024;-43
2021/10/22 02:01:50;;;;;;;28.77;16.50;;;;;;;4.93;70.82;93631.25;5090851;28;20020;-44
2021/10/22 02:04:16;;;;;;;19.88;13.88;;;;;;;4.85;71.25;93638.53;5090519;28;20035;-42
2021/10/22 02:06:41;;;;;;;21.08;13.18;;;;;;;4.83;71.34;93644.50;5090761;28;20020;-43
2021/10/22 02:09:07;;;;;;;23.15;15.88;;;;;;;4.71;71.06;93634.13;5090665;28;20028;-43
2021/10/22 02:11:32;;;;;;;22.17;15.63;;;;;;;4.70;71.04;93635.41;5090682;28;20024;-42
2021/10/22 02:13:58;;;;;;;27.08;16.33;;;;;;;4.69;70.64;93633.91;5090624;28;20444;-44
2021/10/22 02:16:23;;;;;;;28.35;18.42;;;;;;;4.52;71.46;93637.47;5090645;28;20035;-45
2021/10/22 02:18:49;;;;;;;27.92;16.52;;;;;;;4.57;71.13;93642.16;5090641;28;20645;-44
2021/10/22 02:21:15;;;;;;;26.60;16.67;;;;;;;4.51;71.00;93648.91;5089080;28;20412;-42
2021/10/22 02:23:41;;;;;;;28.98;17.27;;;;;;;4.29;70.87;93651.72;5069897;28;20060;-42
2021/10/22 02:26:07;;;;;;;44.75;25.80;;;;;;;4.17;71.02;93639.38;5080521;28;20028;-42
2021/10/22 02:28:32;;;;;;;33.05;19.95;;;;;;;4.31;71.19;93641.78;5090544;28;20488;-44
2021/10/22 02:30:59;;;;;;;27.23;16.60;;;;;;;4.57;70.27;93652.34;5093959;28;20028;-44
2021/10/22 02:33:25;;;;;;;24.83;15.70;;;;;;;4.59;69.14;93655.34;5094280;28;20075;-45
2021/10/22 02:35:51;;;;;;;23.83;15.43;;;;;;;4.55;69.44;93660.31;5094361;28;20031;-44
2021/10/22 02:38:16;;;;;;;27.50;16.83;;;;;;;4.47;70.36;93665.59;5094725;28;20081;-44
2021/10/22 02:40:42;;;;;;;23.33;14.75;;;;;;;4.43;71.07;93665.09;5094548;28;20024;-45
2021/10/22 02:43:07;;;;;;;18.02;12.68;;;;;;;4.15;70.55;93642.59;5094353;28;20123;-45
2021/10/22 02:45:33;;;;;;;20.52;13.10;;;;;;;4.27;71.36;93649.50;5094568;28;20036;-45
2021/10/22 02:47:58;;;;;;;19.60;11.35;;;;;;;4.31;71.36;93671.84;5094188;28;20488;-44
2021/10/22 02:50:24;;;;;;;20.48;12.50;;;;;;;4.32;71.50;93673.34;5094219;28;20031;-43
2021/10/22 02:52:49;;;;;;;21.13;12.65;;;;;;;4.10;71.93;93648.81;5094065;28;20107;-44
2021/10/22 02:55:15;;;;;;;23.33;13.85;;;;;;;4.27;71.91;93670.63;5094098;28;20028;-45
2021/10/22 02:57:41;;;;;;;27.42;14.50;;;;;;;4.27;72.22;93674.09;5093911;28;20020;-44
2021/10/22 03:00:07;;;;;;;47.15;14.13;;;;;;;4.28;71.90;93680.31;5094247;28;20149;-44
2021/10/22 03:02:33;;;;;;;27.25;14.32;;;;;;;4.18;72.52;93682.56;5094252;28;20047;-45
2021/10/22 03:04:58;;;;;;;21.05;12.73;;;;;;;4.26;72.81;93680.81;5093006;28;20132;-45
2021/10/22 03:07:24;;;;;;;20.38;12.70;;;;;;;4.27;72.41;93687.78;5094193;28;20553;-44
2021/10/22 03:09:49;;;;;;;24.75;15.43;;;;;;;4.29;72.78;93690.75;5094049;28;20058;-44
2021/10/22 03:12:15;;;;;;;30.95;17.23;;;;;;;4.17;72.67;93675.63;5093746;28;20031;-44
2021/10/22 03:14:40;;;;;;;32.65;17.73;;;;;;;4.16;73.06;93690.53;5093601;28;20024;-44
2021/10/22 03:17:06;;;;;;;32.15;17.77;;;;;;;4.22;73.25;93685.78;5093704;28;20024;-45
2021/10/22 03:19:32;;;;;;;48.60;24.92;;;;;;;4.32;72.51;93684.28;5093529;28;20061;-45
2021/10/22 03:21:58;;;;;;;51.03;27.42;;;;;;;4.44;73.39;93688.44;5093062;28;20028;-46
2021/10/22 03:24:23;;;;;;;42.45;21.33;;;;;;;4.49;73.93;93692.41;5093176;28;20041;-45
2021/10/22 03:26:49;;;;;;;28.50;16.00;;;;;;;4.52;74.41;93697.63;5093755;28;20027;-45
2021/10/22 03:29:15;;;;;;;46.03;15.93;;;;;;;4.40;73.22;93690.69;5093413;28;20027;-45
2021/10/22 03:31:40;;;;;;;43.03;18.95;;;;;;;4.29;74.21;93703.66;5092156;28;20031;-45
2021/10/22 03:34:06;;;;;;;53.88;23.23;;;;;;;4.22;74.38;93698.72;5093524;28;20056;-44
2021/10/22 03:36:34;;;;;;;41.83;21.05;;;;;;;4.31;75.28;93704.66;5093510;28;20024;-45
2021/10/22 03:39:00;;;;;;;70.43;22.63;;;;;;;4.11;74.76;93669.44;5093156;28;20480;-46
2021/10/22 03:41:25;;;;;;;40.40;12.95;;;;;;;4.43;75.77;93700.66;5092767;28;20028;-45
2021/10/22 03:43:52;;;;;;;52.80;13.93;;;;;;;4.23;75.55;93692.00;5093433;28;20550;-44
2021/10/22 03:46:18;;;;;;;48.78;16.30;;;;;;;4.30;74.69;93696.97;5093387;28;20062;-46
2021/10/22 03:48:43;;;;;;;34.83;16.63;;;;;;;4.22;74.76;93690.53;5093298;28;20461;-45
2021/10/22 03:51:09;;;;;;;42.75;17.83;;;;;;;4.26;75.32;93688.28;5093266;28;20036;-45
2021/10/22 03:53:35;;;;;;;32.60;16.55;;;;;;;4.44;75.43;93698.66;5093187;28;20112;-45
2021/10/22 03:56:00;;;;;;;27.60;13.15;;;;;;;4.40;74.17;93698.91;5093174;28;20050;-46
2021/10/22 03:58:26;;;;;;;63.55;21.55;;;;;;;4.48;73.36;93702.59;5092857;28;20024;-44
2021/10/22 04:00:51;;;;;;;83.43;27.52;;;;;;;4.46;73.17;93694.16;5092751;28;20059;-44
2021/10/22 04:03:17;;;;;;;97.70;34.55;;;;;;;4.46;73.92;93699.63;5093071;28;20109;-45
2021/10/22 04:05:44;;;;;;;62.88;28.55;;;;;;;4.47;72.86;93697.63;5092934;28;20031;-44
2021/10/22 04:08:09;;;;;;;117.00;42.80;;;;;;;4.18;73.22;93693.50;5092626;28;20489;-45
2021/10/22 04:10:34;;;;;;;130.25;44.75;;;;;;;3.78;73.58;93675.00;5092868;28;20024;-47
2021/10/22 04:13:01;;;;;;;130.27;46.85;;;;;;;3.83;74.12;93682.44;5092401;28;20610;-45
2021/10/22 04:15:26;;;;;;;87.90;34.58;;;;;;;3.99;73.40;93684.38;5092414;28;20417;-45
2021/10/22 04:17:52;;;;;;;57.17;25.88;;;;;;;4.14;73.20;93693.03;5088495;28;20032;-45
2021/10/22 04:20:18;;;;;;;44.95;20.23;;;;;;;4.06;71.96;93691.31;5072507;28;20401;-44
2021/10/22 04:22:44;;;;;;;40.55;19.70;;;;;;;4.02;72.52;93688.09;5085396;28;20031;-44
2021/10/22 04:25:10;;;;;;;30.42;16.95;;;;;;;3.84;73.41;93694.84;5092323;28;20460;-44
2021/10/22 04:27:35;;;;;;;29.92;17.27;;;;;;;3.70;73.45;93693.13;5092592;28;20048;-44
2021/10/22 04:30:06;;;;;;;32.55;14.82;;;;;;;3.63;73.83;93693.63;5091417;28;20334;-44
2021/10/22 04:32:31;;;;;;;46.03;21.67;;;;;;;3.62;74.62;93692.88;5092341;28;20047;-44
2021/10/22 04:34:57;;;;;;;39.70;21.00;;;;;;;3.78;74.62;93689.41;5092376;28;20449;-44
2021/10/22 04:37:45;;;;;;;49.10;25.55;;;;;;;3.88;73.94;93689.13;5092399;28;20537;-44
2021/10/22 04:42:56;;;;;;;21.13;13.75;;;;;;;3.65;74.48;93691.88;5092101;28;20031;-44
2021/10/22 04:45:22;;;;;;;32.75;16.45;;;;;;;3.85;74.33;93688.13;5092296;28;20088;-44
2021/10/22 04:47:47;;;;;;;24.88;14.50;;;;;;;3.91;73.86;93690.84;5090659;28;20031;-44
2021/10/22 04:50:13;;;;;;;25.17;15.82;;;;;;;3.87;74.16;93677.47;5091664;28;20416;-45
2021/10/22 04:52:40;;;;;;;37.33;18.20;;;;;;;3.92;73.14;93695.81;5091113;28;20062;-44
2021/10/22 04:55:06;;;;;;;29.85;14.07;;;;;;;3.99;73.72;93695.31;5091130;28;20112;-44
2021/10/22 04:57:31;;;;;;;22.88;12.55;;;;;;;4.03;73.41;93706.72;5091443;28;20020;-45
2021/10/22 04:59:57;;;;;;;31.30;12.75;;;;;;;4.17;74.39;93700.22;5091618;28;20156;-45
2021/10/22 05:02:22;;;;;;;48.30;12.65;;;;;;;4.18;74.10;93698.25;5091576;28;20468;-45
2021/10/22 05:04:48;;;;;;;59.65;17.90;;;;;;;4.10;74.47;93695.28;5091198;28;20393;-44
2021/10/22 05:07:13;;;;;;;47.00;15.23;;;;;;;4.17;75.85;93692.03;5091150;28;20019;-47
2021/10/22 05:09:39;;;;;;;66.95;24.83;;;;;;;4.21;75.10;93700.72;5091240;28;20016;-44
2021/10/22 05:12:07;;;;;;;63.10;19.65;;;;;;;4.11;75.23;93706.97;5076459;28;20017;-44
2021/10/22 05:14:34;;;;;;;80.20;19.83;;;;;;;4.09;75.90;93715.66;5076675;28;20031;-44
2021/10/22 05:17:00;;;;;;;84.93;20.98;;;;;;;4.05;74.95;93715.16;5089313;28;20031;-45
2021/10/22 05:19:26;;;;;;;44.25;20.83;;;;;;;4.07;75.14;93711.94;5088972;28;20027;-44
2021/10/22 05:21:51;;;;;;;38.40;19.40;;;;;;;4.09;74.67;93709.44;5082195;28;20032;-44
2021/10/22 05:24:17;;;;;;;39.28;21.20;;;;;;;3.98;73.91;93709.47;5078055;28;20131;-44
2021/10/22 05:26:42;;;;;;;35.03;20.60;;;;;;;4.00;74.06;93718.66;5100404;28;20093;-44
2021/10/22 05:29:08;;;;;;;46.13;22.95;;;;;;;4.07;74.16;93723.59;5097767;28;20041;-45
2021/10/22 05:31:33;;;;;;;38.10;20.00;;;;;;;4.09;74.35;93731.31;5088616;28;20031;-44
2021/10/22 05:33:59;;;;;;;43.13;19.58;;;;;;;4.11;74.48;93731.53;5088287;28;20064;-45
2021/10/22 05:36:24;;;;;;;73.07;28.52;;;;;;;4.08;75.03;93736.00;5088428;28;20024;-43
2021/10/22 05:38:51;;;;;;;61.95;28.90;;;;;;;4.17;75.00;93743.19;5088927;28;20028;-45
2021/10/22 05:41:17;;;;;;;84.05;56.42;;;;;;;4.26;74.16;93746.41;5088906;28;20036;-44
2021/10/22 05:43:42;;;;;;;71.35;35.08;;;;;;;4.01;73.60;93719.38;5088284;28;20077;-44
2021/10/22 05:46:08;;;;;;;31.98;19.08;;;;;;;4.38;74.16;93763.53;5086571;28;20020;-41
2021/10/22 05:48:33;;;;;;;30.08;19.67;;;;;;;4.43;74.54;93760.03;5067027;28;20086;-40
2021/10/22 05:51:00;;;;;;;52.33;28.67;;;;;;;4.53;74.89;93759.25;5067402;28;20736;-44
2021/10/22 05:53:25;;;;;;;45.55;25.25;;;;;;;4.61;75.02;93751.28;5070600;28;20028;-43
2021/10/22 05:55:51;;;;;;;42.45;25.15;;;;;;;4.67;74.52;93767.66;5087007;28;20019;-43
2021/10/22 05:58:17;;;;;;;54.80;28.75;;;;;;;4.77;74.71;93768.84;5087331;28;20028;-43
2021/10/22 06:00:43;;;;;;;76.65;39.08;;;;;;;4.93;73.76;93774.28;5087057;28;20532;-43
2021/10/22 06:03:08;;;;;;;49.03;29.45;;;;;;;5.13;73.11;93775.94;5088076;28;20088;-42
2021/10/22 06:05:34;;;;;;;51.95;29.50;;;;;;;5.16;72.56;93777.63;5087163;28;20028;-44
2021/10/22 06:08:00;;;;;;;52.70;29.33;;;;;;;5.16;73.20;93763.94;5089819;28;20035;-41
2021/10/22 06:10:26;;;;;;;47.75;28.25;;;;;;;5.29;73.09;93767.63;5086957;28;20059;-41
2021/10/22 06:12:52;;;;;;;51.65;30.50;;;;;;;5.43;72.56;93779.50;5082799;28;20036;-42
2021/10/22 06:15:17;;;;;;;75.53;37.25;;;;;;;5.64;72.68;93786.06;5086348;28;20025;-41
2021/10/22 06:17:43;;;;;;;54.08;33.08;;;;;;;5.72;72.42;93781.53;5087985;28;20031;-41
2021/10/22 06:20:13;;;;;;;68.20;42.95;;;;;;;5.76;72.35;93792.94;5096303;28;20020;-41
2021/10/22 06:23:52;;;;;;;63.33;38.13;;;;;;;5.73;72.02;93771.31;5080126;28;20271;-41
2021/10/22 06:25:25;;;;;;;64.55;39.53;;;;;;;5.97;72.24;93794.06;5066934;28;20465;-41
2021/10/22 06:27:52;;;;;;;47.63;29.95;;;;;;;5.81;72.48;93791.41;5067044;28;20032;-41
2021/10/22 06:30:18;;;;;;;72.38;45.03;;;;;;;5.92;72.68;93800.34;5066956;28;20723;-41
2021/10/22 06:32:43;;;;;;;39.38;22.20;;;;;;;5.94;73.28;93791.59;5067186;28;20025;-42
2021/10/22 06:35:09;;;;;;;28.33;20.23;;;;;;;5.97;73.92;93796.81;5066528;28;20162;-42
2021/10/22 06:37:34;;;;;;;29.73;19.50;;;;;;;6.10;73.86;93807.94;5066297;28;20028;-41
2021/10/22 06:39:59;;;;;;;33.00;20.40;;;;;;;6.26;73.65;93794.59;5066402;28;20086;-41
2021/10/22 06:42:25;;;;;;;29.83;20.88;;;;;;;6.34;73.39;93798.25;5066515;28;20020;-41
2021/10/22 06:44:50;;;;;;;28.75;18.77;;;;;;;6.62;73.35;93793.97;5066563;28;20029;-41
2021/10/22 06:47:16;;;;;;;25.15;17.33;;;;;;;7.15;71.78;93789.59;5066343;28;20025;-42
2021/10/22 06:49:41;;;;;;;27.52;18.05;;;;;;;7.73;69.62;93789.09;5066581;28;20020;-41
2021/10/22 06:52:07;;;;;;;37.05;22.50;;;;;;;8.33;67.70;93792.91;5067063;28;20033;-43
2021/10/22 06:54:32;;;;;;;31.88;22.35;;;;;;;8.97;66.02;93793.50;5067009;28;20029;-44
2021/10/22 06:56:58;;;;;;;29.23;20.50;;;;;;;9.24;64.69;93792.22;5066963;28;20024;-42
2021/10/22 06:59:23;;;;;;;30.15;20.05;;;;;;;9.88;63.42;93803.63;5066791;28;20028;-42
2021/10/22 07:01:49;;;;;;;43.85;24.77;;;;;;;10.33;61.97;93801.34;5068784;28;20076;-42
2021/10/22 07:04:15;;;;;;;34.70;21.42;;;;;;;11.05;60.29;93801.50;5085605;28;20062;-44
2021/10/22 07:09:24;;;;;;;36.80;23.48;;;;;;;12.30;57.00;93800.34;5087214;28;20520;-42
2021/10/22 07:11:50;;;;;;;40.10;25.05;;;;;;;12.66;55.98;93789.13;5086935;28;20024;-40
2021/10/22 07:14:16;;;;;;;30.25;19.73;;;;;;;13.43;54.73;93791.25;5086391;28;20020;-42
2021/10/22 07:16:42;;;;;;;32.13;21.95;;;;;;;14.04;53.95;93795.25;5087648;28;20024;-43
2021/10/22 07:19:07;;;;;;;38.15;22.90;;;;;;;14.69;51.93;93798.78;5090543;28;20040;-45
2021/10/22 07:21:37;;;;;;;33.15;18.65;;;;;;;15.45;49.85;93793.28;5086373;28;20020;-43
2021/10/22 07:24:10;;;;;;;19.92;13.43;;;;;;;15.88;49.32;93789.09;5069962;28;20052;-41
2021/10/22 07:26:36;;;;;;;18.67;13.85;;;;;;;16.20;48.30;93788.84;5089247;28;20054;-42
2021/10/22 07:29:01;;;;;;;15.95;12.43;;;;;;;16.50;48.89;93790.53;5106866;28;20544;-41
2021/10/22 07:31:27;;;;;;;23.90;20.42;;;;;;;16.97;47.77;93795.56;5110351;28;20472;-43
2021/10/22 07:33:53;;;;;;;14.77;11.40;;;;;;;17.34;47.27;93796.97;5110348;28;20070;-43
2021/10/22 07:36:18;;;;;;;14.40;12.93;;;;;;;17.62;46.61;93792.03;5110462;28;20040;-41
2021/10/22 07:38:44;;;;;;;16.27;13.27;;;;;;;18.10;45.41;93796.25;5099769;28;20024;-43
2021/10/22 07:41:14;;;;;;;17.42;12.05;;;;;;;18.71;44.91;93789.41;5110150;28;20110;-42
2021/10/22 07:43:39;;;;;;;11.98;10.10;;;;;;;19.87;42.19;93790.22;5110145;28;20536;-42
2021/10/22 07:46:05;;;;;;;17.80;10.27;;;;;;;20.24;41.91;93794.81;5110397;28;20123;-42
2021/10/22 07:48:32;;;;;;;13.63;10.55;;;;;;;20.74;40.06;93788.84;5110410;28;20416;-42
2021/10/22 07:50:57;;;;;;;16.75;13.77;;;;;;;22.13;37.38;93788.72;5110329;28;20504;-42
2021/10/22 07:53:24;;;;;;;12.90;11.32;;;;;;;22.47;36.71;93789.91;5110365;28;20025;-43
2021/10/22 07:55:49;;;;;;;15.52;12.18;;;;;;;22.75;36.77;93793.56;5110039;28;20576;-43
2021/10/22 07:58:15;;;;;;;15.82;14.07;;;;;;;22.92;36.04;93793.81;5110236;28;20023;-41
2021/10/22 08:00:40;;;;;;;20.98;15.65;;;;;;;23.09;35.38;93795.41;5110111;28;20024;-41
2021/10/22 08:03:06;;;;;;;18.58;14.07;;;;;;;23.21;35.09;93788.34;5103326;28;20466;-42
2021/10/22 08:05:31;;;;;;;46.72;14.60;;;;;;;22.74;36.14;93789.28;5088939;28;20031;-41
2021/10/22 08:07:58;;;;;;;23.73;15.45;;;;;;;22.01;37.74;93787.28;5089724;28;20027;-41
2021/10/22 08:10:23;;;;;;;17.55;12.48;;;;;;;21.25;40.47;93794.72;5088488;28;20040;-41
2021/10/22 08:12:50;;;;;;;29.25;14.38;;;;;;;20.52;41.89;93798.66;5089567;28;20084;-41
2021/10/22 08:15:16;;;;;;;25.52;16.02;;;;;;;20.58;41.88;93795.50;5099070;28;20412;-42
2021/10/22 08:17:43;;;;;;;27.30;21.88;;;;;;;21.08;41.05;93796.56;5102839;28;20114;-41
2021/10/22 08:20:11;;;;;;;20.17;15.07;;;;;;;21.89;39.76;93792.94;5100444;28;20043;-42
2021/10/22 08:22:37;;;;;;;21.55;15.10;;;;;;;23.03;37.28;93795.09;5083896;28;20029;-42
2021/10/22 08:25:07;;;;;;;26.88;17.73;;;;;;;24.45;34.06;93798.16;5068336;28;20023;-42
2021/10/22 08:27:42;;;;;;;12.55;9.35;;;;;;;25.18;31.01;93791.72;5068816;28;20025;-42
2021/10/22 08:30:10;;;;;;;17.58;14.27;;;;;;;26.67;29.46;93786.06;5068858;28;20460;-43
2021/10/22 08:32:37;;;;;;;12.98;9.43;;;;;;;26.43;29.52;93791.50;5068855;28;20082;-43
2021/10/22 08:35:04;;;;;;;11.73;8.13;;;;;;;26.06;30.03;93806.22;5085433;28;20024;-43
2021/10/22 08:37:30;;;;;;;8.35;7.28;;;;;;;25.22;31.40;93806.03;5109072;28;20032;-40
2021/10/22 08:39:56;;;;;;;7.22;6.53;;;;;;;24.71;31.56;93800.13;5108915;28;20469;-44
2021/10/22 08:42:23;;;;;;;9.68;7.65;;;;;;;24.17;33.83;93797.47;5109518;28;20049;-43
2021/10/22 08:44:53;;;;;;;13.52;6.97;;;;;;;23.72;33.43;93799.41;5109858;28;20037;-43
2021/10/22 08:47:20;;;;;;;10.63;9.52;;;;;;;23.25;34.99;93802.63;5109441;28;20051;-43
2021/10/22 08:49:46;;;;;;;8.27;7.43;;;;;;;22.68;35.90;93794.56;5109183;28;20072;-42
2021/10/22 08:52:11;;;;;;;9.77;8.77;;;;;;;22.28;36.33;93802.22;5109171;28;20023;-43
2021/10/22 08:54:39;;;;;;;17.23;11.38;;;;;;;21.98;38.69;93796.97;5108846;28;20415;-41
2021/10/22 08:57:05;;;;;;;25.73;12.95;;;;;;;22.07;38.14;93798.88;5109195;28;20027;-45
2021/10/22 08:59:31;;;;;;;15.73;8.15;;;;;;;22.32;37.23;93802.44;5102147;28;20024;-42
2021/10/22 09:02:13;;;;;;;13.35;9.82;;;;;;;23.95;34.25;93793.56;5097949;28;20034;-45
2021/10/22 09:16:50;;;;;;;9.68;7.65;;;;;;;24.35;33.89;93784.28;5124861;27;20615;-43
2021/10/22 09:19:37;;;;;;;8.57;6.53;;;;;;;25.32;32.69;93781.06;5124736;27;20031;-43
2021/10/22 09:22:21;;;;;;;10.00;6.65;;;;;;;24.85;31.75;93777.50;5113458;27;20443;-43
2021/10/22 09:24:57;;;;;;;9.52;7.18;;;;;;;23.35;34.71;93772.19;5082223;28;20032;-43
2021/10/22 09:27:41;;;;;;;7.00;6.32;;;;;;;23.06;36.90;93779.75;5084216;28;20036;-43
2021/10/22 09:30:25;;;;;;;8.52;6.65;;;;;;;22.62;37.06;93783.72;5083980;28;20032;-43
2021/10/22 09:32:55;;;;;;;9.95;6.32;;;;;;;22.17;37.31;93782.56;5084333;28;20043;-42
2021/10/22 09:35:36;;;;;;;8.82;7.30;;;;;;;21.81;38.72;93779.13;5083150;28;20026;-42
2021/10/22 09:38:14;;;;;;;8.13;7.15;;;;;;;21.67;39.66;93791.63;5084205;28;20024;-43
2021/10/22 09:40:44;;;;;;;8.23;7.22;;;;;;;22.61;38.24;93782.97;5083561;28;20033;-43
2021/10/22 09:43:16;;;;;;;10.13;6.97;;;;;;;23.36;35.83;93781.38;5083849;28;20029;-43
2021/10/22 09:45:41;;;;;;;11.38;8.15;;;;;;;23.45;36.34;93785.34;5083862;28;20035;-43
2021/10/22 09:48:27;;;;;;;9.38;7.22;;;;;;;23.61;35.78;93789.72;5083826;28;20028;-44
2021/10/22 09:50:54;;;;;;;8.95;7.20;;;;;;;23.65;36.68;93778.66;5083547;28;20505;-45
2021/10/22 09:53:25;;;;;;;25.02;14.02;;;;;;;23.32;35.82;93783.97;5083552;28;20024;-42
2021/10/22 09:56:03;;;;;;;13.35;8.85;;;;;;;23.42;36.63;93776.06;5083747;28;20412;-42
2021/10/22 09:58:28;;;;;;;9.05;7.38;;;;;;;23.95;35.42;93777.34;5083715;28;20028;-42
2021/10/22 10:01:08;;;;;;;10.82;6.53;;;;;;;24.06;34.67;93775.81;5083804;28;20093;-44
2021/10/22 10:03:37;;;;;;;42.83;31.48;;;;;;;24.12;35.36;93769.72;5083471;28;20809;-42
2021/10/22 10:06:04;;;;;;;7.47;6.65;;;;;;;24.56;33.44;93766.22;5083406;28;20750;-42
2021/10/22 10:08:30;;;;;;;14.35;10.15;;;;;;;24.77;34.17;93765.81;5083777;28;20064;-42
2021/10/22 10:10:56;;;;;;;8.35;6.47;;;;;;;25.42;33.13;93763.84;5082435;28;20028;-44
2021/10/22 10:13:21;;;;;;;7.47;5.78;;;;;;;25.43;32.29;93770.94;5087399;28;20524;-44
2021/10/22 10:15:47;;;;;;;9.00;7.53;;;;;;;25.42;32.52;93764.59;5100492;28;20047;-43
2021/10/22 10:18:17;;;;;;;8.63;6.85;;;;;;;25.48;32.69;93761.28;5090159;28;20035;-45
2021/10/22 10:20:43;;;;;;;8.18;6.50;;;;;;;25.23;33.02;93770.75;5089080;28;20028;-42
2021/10/22 10:23:09;;;;;;;8.50;6.72;;;;;;;25.06;32.85;93760.09;5088602;28;20107;-42
2021/10/22 10:25:34;;;;;;;7.65;6.85;;;;;;;25.10;32.66;93754.63;5087706;28;20810;-42
2021/10/22 10:28:00;;;;;;;10.38;6.22;;;;;;;25.36;32.85;93750.13;5090179;28;20039;-43
2021/10/22 10:30:34;;;;;;;8.90;8.00;;;;;;;25.36;32.87;93749.44;5089617;28;20496;-42
2021/10/22 10:33:01;;;;;;;8.05;6.72;;;;;;;25.24;32.92;93754.53;5090060;28;20060;-43
2021/10/22 10:49:47;;;;;;;15.35;12.32;;;;;;;29.28;26.54;93737.72;5060863;28;21520;-43
2021/10/22 10:52:37;;;;;;;8.00;6.40;;;;;;;29.19;26.53;93736.03;5060381;28;20465;-43
2021/10/22 10:55:14;;;;;;;14.05;12.57;;;;;;;28.21;27.26;93727.94;5056655;28;20025;-44
2021/10/22 10:57:47;;;;;;;15.20;8.88;;;;;;;28.26;28.00;93730.25;5058365;28;20449;-43
2021/10/22 11:00:15;;;;;;;9.77;6.35;;;;;;;28.47;27.22;93720.28;5059919;28;20039;-43
2021/10/22 11:03:02;;;;;;;10.95;5.68;;;;;;;28.53;27.06;93720.47;5059435;28;20716;-45
2021/10/22 11:05:49;;;;;;;13.70;9.90;;;;;;;28.62;26.32;93710.81;5060063;28;20429;-44
2021/10/22 11:08:24;;;;;;;8.00;5.75;;;;;;;28.81;27.01;93709.25;5060467;28;20032;-43
2021/10/22 11:10:56;;;;;;;7.18;6.07;;;;;;;28.49;28.48;93704.03;5060626;28;20393;-42
2021/10/22 11:13:23;;;;;;;6.47;5.60;;;;;;;28.57;28.09;93706.41;5047443;28;20041;-42
2021/10/22 11:15:49;;;;;;;8.55;5.63;;;;;;;29.01;27.43;93704.91;5052268;28;20032;-43
2021/10/22 11:18:16;;;;;;;7.13;5.55;;;;;;;29.59;26.64;93707.97;5060572;28;20021;-43
2021/10/22 11:20:42;;;;;;;5.68;4.88;;;;;;;29.70;25.49;93707.59;5058972;28;20032;-43
2021/10/22 11:23:11;;;;;;;6.20;5.53;;;;;;;29.10;27.21;93708.72;5059181;28;20036;-43
2021/10/22 11:25:36;;;;;;;10.45;6.28;;;;;;;29.03;25.66;93693.59;5060284;28;20039;-43
2021/10/22 11:28:09;;;;;;;6.32;5.72;;;;;;;29.21;26.79;93696.28;5060094;28;20043;-43
2021/10/22 11:30:35;;;;;;;6.20;5.20;;;;;;;29.50;26.67;93686.41;5059836;28;20024;-43
2021/10/22 11:33:02;;;;;;;7.55;6.78;;;;;;;29.80;25.88;93690.81;5059017;28;20036;-42
2021/10/22 11:35:30;;;;;;;10.43;6.70;;;;;;;29.82;25.38;93685.16;5060368;28;20100;-44
2021/10/22 11:38:04;;;;;;;8.05;6.60;;;;;;;29.85;25.27;93680.97;5060505;28;20032;-43
2021/10/22 11:40:30;;;;;;;11.50;10.38;;;;;;;30.01;25.48;93674.97;5059672;28;20542;-43
2021/10/22 11:43:06;;;;;;;6.35;5.72;;;;;;;30.21;25.44;93677.59;5060105;27;20029;-43
2021/10/22 11:45:32;;;;;;;7.13;6.40;;;;;;;29.99;25.84;93672.09;5059855;28;20024;-43
2021/10/22 11:47:57;;;;;;;7.03;5.75;;;;;;;29.31;25.64;93673.78;5041684;28;20110;-42
2021/10/22 11:50:34;;;;;;;6.85;5.28;;;;;;;29.45;25.53;93670.63;5028220;28;20025;-44
2021/10/22 11:53:05;;;;;;;9.25;6.75;;;;;;;29.11;25.96;93665.41;5035230;28;20497;-43
2021/10/22 11:55:31;;;;;;;14.73;10.25;;;;;;;28.72;27.62;93670.66;5046023;28;20033;-42